createdAt,value
2022-07-27T00:02:01.981Z,95952.41
2022-07-27T00:04:32.087Z,95949.81
2022-07-27T00:07:01.944Z,95927.75
2022-07-27T00:09:30.875Z,95934.22
2022-07-27T00:12:01.637Z,95928.38
2022-07-27T00:14:33.890Z,95920.66
2022-07-27T00:17:02.832Z,95924.34
2022-07-27T00:19:34.629Z,95921.19
2022-07-27T00:22:04.439Z,95921.72
2022-07-27T00:24:32.704Z,95913.22
2022-07-27T00:27:02.116Z,95893.44
2022-07-27T00:29:33.302Z,95927.69
2022-07-27T00:32:01.568Z,95929.19
2022-07-27T00:34:31.897Z,95928.13
2022-07-27T00:37:02.889Z,95933.47
2022-07-27T00:39:33.101Z,95927.06
2022-07-27T00:42:06.160Z,95931.84
2022-07-27T00:44:37.103Z,95928.53
2022-07-27T00:47:06.011Z,95935.97
2022-07-27T00:49:37.373Z,95930.47
2022-07-27T00:52:08.937Z,95943.19
2022-07-27T00:54:37.317Z,95937.69
2022-07-27T00:57:07.431Z,95942.91
2022-07-27T00:59:37.513Z,95942.59
2022-07-27T01:02:11.282Z,95943.78
2022-07-27T01:04:41.777Z,95947.22
2022-07-27T01:07:15.197Z,95958.59
2022-07-27T01:09:58.190Z,95950.22
2022-07-27T01:12:29.538Z,95949.56
2022-07-27T01:15:01.101Z,95934.03
2022-07-27T01:17:32.483Z,95940.50
2022-07-27T01:20:03.821Z,95932.38
2022-07-27T01:22:34.268Z,95930.78
2022-07-27T01:25:04.430Z,95935.50
2022-07-27T01:27:34.983Z,95926.13
2022-07-27T01:30:03.653Z,95928.56
2022-07-27T01:32:33.847Z,95944.78
2022-07-27T01:35:04.058Z,95926.97
2022-07-27T01:37:33.718Z,95926.00
2022-07-27T01:40:05.406Z,95923.13
2022-07-27T01:42:35.552Z,95925.72
2022-07-27T01:45:04.886Z,95920.69
2022-07-27T01:47:34.720Z,95930.59
2022-07-27T01:50:03.208Z,95923.31
2022-07-27T01:52:33.609Z,95917.66
2022-07-27T01:55:04.485Z,95924.03
2022-07-27T01:57:33.971Z,95918.38
2022-07-27T02:00:04.005Z,95924.53
2022-07-27T02:02:33.433Z,95877.28
2022-07-27T02:05:05.229Z,95912.41
2022-07-27T02:07:36.977Z,95913.91
2022-07-27T02:10:06.255Z,95906.44
2022-07-27T02:12:36.983Z,95912.09
2022-07-27T02:15:08.994Z,95909.84
2022-07-27T02:17:45.796Z,95916.34
2022-07-27T02:20:16.155Z,95911.75
2022-07-27T02:22:48.909Z,95906.13
2022-07-27T02:25:20.001Z,95910.16
2022-07-27T02:27:49.171Z,95877.03
2022-07-27T02:30:19.334Z,95904.81
2022-07-27T02:32:49.710Z,95904.34
2022-07-27T02:35:18.831Z,95902.25
2022-07-27T02:37:51.036Z,95904.84
2022-07-27T02:40:20.639Z,95909.38
2022-07-27T02:42:49.656Z,95897.09
2022-07-27T02:45:20.017Z,95901.47
2022-07-27T02:47:50.108Z,95904.06
2022-07-27T02:50:18.762Z,95907.59
2022-07-27T02:52:50.752Z,95913.94
2022-07-27T02:55:19.123Z,95909.41
2022-07-27T02:57:47.735Z,95910.22
2022-07-27T03:00:17.452Z,95880.78
2022-07-27T03:02:50.373Z,95920.75
2022-07-27T03:05:20.038Z,95912.31
2022-07-27T03:07:51.711Z,95921.69
2022-07-27T03:10:20.905Z,95912.34
2022-07-27T03:12:49.603Z,95887.91
2022-07-27T03:15:17.995Z,95920.13
2022-07-27T03:17:49.326Z,95912.00
2022-07-27T03:20:20.167Z,95875.63
2022-07-27T03:22:49.584Z,95922.00
2022-07-27T03:25:21.261Z,95918.47
2022-07-27T03:27:49.577Z,95915.88
2022-07-27T03:30:18.973Z,95921.41
2022-07-27T03:32:48.358Z,95925.44
2022-07-27T03:35:19.763Z,95929.47
2022-07-27T03:37:48.663Z,95922.84
2022-07-27T03:40:18.938Z,95926.72
2022-07-27T03:42:49.696Z,95927.06
2022-07-27T03:45:18.520Z,95928.84
2022-07-27T03:47:47.123Z,95937.06
2022-07-27T03:50:16.922Z,95938.06
2022-07-27T03:52:46.885Z,95940.19
2022-07-27T03:55:16.801Z,95939.50
2022-07-27T03:57:50.970Z,95945.47
2022-07-27T04:00:19.524Z,95940.78
2022-07-27T04:02:48.634Z,95938.16
2022-07-27T04:05:18.199Z,95937.84
2022-07-27T04:07:49.084Z,95949.34
2022-07-27T04:10:23.301Z,95950.66
2022-07-27T04:12:56.296Z,95947.88
2022-07-27T04:15:25.028Z,95956.31
2022-07-27T04:17:57.542Z,95937.50
2022-07-27T04:20:26.856Z,95949.19
2022-07-27T04:22:56.202Z,95945.13
2022-07-27T04:25:27.438Z,95949.81
2022-07-27T04:27:58.688Z,95941.78
2022-07-27T04:30:28.274Z,95947.59
2022-07-27T04:32:58.256Z,95945.97
2022-07-27T04:35:26.981Z,95942.56
2022-07-27T04:37:58.460Z,95940.09
2022-07-27T04:40:33.918Z,95936.88
2022-07-27T04:43:07.683Z,95940.59
2022-07-27T04:45:38.491Z,95947.19
2022-07-27T04:48:08.480Z,95928.09
2022-07-27T04:50:41.142Z,95944.53
2022-07-27T04:53:11.130Z,95939.81
2022-07-27T04:55:43.173Z,95940.41
2022-07-27T04:58:15.762Z,95937.81
2022-07-27T05:00:44.697Z,95936.28
2022-07-27T05:03:14.591Z,95921.06
2022-07-27T05:05:49.872Z,95940.66
2022-07-27T05:08:20.608Z,95940.44
2022-07-27T05:10:50.927Z,95940.75
2022-07-27T05:13:22.834Z,95903.50
2022-07-27T05:15:54.011Z,95935.09
2022-07-27T05:18:25.608Z,95931.84
2022-07-27T05:20:54.589Z,95940.38
2022-07-27T05:23:25.590Z,95953.94
2022-07-27T05:25:54.905Z,95952.34
2022-07-27T05:28:24.683Z,95954.88
2022-07-27T05:30:53.715Z,95933.31
2022-07-27T05:33:23.293Z,95953.78
2022-07-27T05:35:54.220Z,95935.25
2022-07-27T05:38:22.573Z,95953.66
2022-07-27T05:40:53.265Z,95967.84
2022-07-27T05:43:25.298Z,95960.22
2022-07-27T05:45:53.679Z,95960.13
2022-07-27T05:48:22.640Z,95842.06
2022-07-27T05:50:52.800Z,95952.63
2022-07-27T05:53:21.657Z,95970.09
2022-07-27T05:55:59.320Z,95958.59
2022-07-27T05:58:31.125Z,95973.69
2022-07-27T06:01:00.184Z,95962.00
2022-07-27T06:03:30.512Z,95964.53
2022-07-27T06:06:19.045Z,95951.31
2022-07-27T06:08:49.824Z,95960.16
2022-07-27T06:11:20.840Z,95952.41
2022-07-27T06:13:51.025Z,95958.13
2022-07-27T06:16:20.661Z,95957.63
2022-07-27T06:18:50.567Z,95940.38
2022-07-27T06:21:18.924Z,95955.81
2022-07-27T06:23:48.549Z,95969.38
2022-07-27T06:26:18.374Z,95964.09
2022-07-27T06:28:47.536Z,95952.28
2022-07-27T06:31:17.233Z,95953.94
2022-07-27T06:33:46.087Z,95958.22
2022-07-27T06:36:20.492Z,95955.00
2022-07-27T06:38:48.860Z,95952.44
2022-07-27T06:41:19.999Z,95945.94
2022-07-27T06:43:49.943Z,95952.75
2022-07-27T06:46:19.919Z,95948.03
2022-07-27T06:48:50.419Z,95941.16
2022-07-27T06:51:20.432Z,95958.28
2022-07-27T06:53:48.681Z,95951.50
2022-07-27T06:56:17.995Z,95966.41
2022-07-27T06:58:46.939Z,95954.59
2022-07-27T07:01:16.270Z,95952.00
2022-07-27T07:03:48.426Z,95908.19
2022-07-27T07:06:17.518Z,95934.38
2022-07-27T07:08:47.642Z,95913.06
2022-07-27T07:11:16.602Z,95942.63
2022-07-27T07:13:45.446Z,95944.22
2022-07-27T07:16:15.985Z,95945.88
2022-07-27T07:18:52.230Z,95939.22
2022-07-27T07:21:22.482Z,95941.06
2022-07-27T07:23:52.459Z,95944.88
2022-07-27T07:26:21.289Z,95922.34
2022-07-27T07:28:49.632Z,95935.19
2022-07-27T07:31:20.039Z,95902.81
2022-07-27T07:33:52.337Z,95900.97
2022-07-27T07:36:21.591Z,95929.72
2022-07-27T07:38:51.661Z,95938.59
2022-07-27T07:43:50.096Z,95937.97
2022-07-27T07:46:19.469Z,95887.06
2022-07-27T07:48:48.250Z,95894.31
2022-07-27T07:51:19.394Z,95920.00
2022-07-27T07:53:49.074Z,95890.66
2022-07-27T07:56:20.131Z,95921.66
2022-07-27T07:58:53.812Z,95913.22
2022-07-27T08:01:26.353Z,95916.81
2022-07-27T08:08:54.615Z,95929.91
2022-07-27T08:11:29.413Z,95928.66
2022-07-27T08:14:00.904Z,95928.03
2022-07-27T08:16:30.610Z,95936.84
2022-07-27T08:18:59.391Z,95916.25
2022-07-27T08:21:35.327Z,95920.69
2022-07-27T08:24:06.347Z,95901.78
2022-07-27T08:26:36.232Z,95911.50
2022-07-27T08:29:11.292Z,95914.97
2022-07-27T08:31:52.951Z,95912.13
2022-07-27T08:34:23.990Z,95906.38
2022-07-27T08:36:55.073Z,95921.50
2022-07-27T08:40:20.031Z,95923.00
2022-07-27T08:42:14.779Z,95852.97
2022-07-27T08:44:43.166Z,95909.94
2022-07-27T08:47:12.417Z,95909.97
2022-07-27T08:49:43.989Z,95907.66
2022-07-27T08:52:14.350Z,95905.63
2022-07-27T08:54:43.483Z,95903.88
2022-07-27T08:57:14.669Z,95906.41
2022-07-27T08:59:43.420Z,95910.22
2022-07-27T09:02:15.435Z,95897.09
2022-07-27T09:04:44.572Z,95914.75
2022-07-27T09:07:28.828Z,95917.31
2022-07-27T09:10:00.495Z,95916.03
2022-07-27T09:12:29.960Z,95919.84
2022-07-27T09:15:07.781Z,95886.50
2022-07-27T09:17:52.291Z,95915.47
2022-07-27T09:20:22.797Z,95912.78
2022-07-27T09:22:56.382Z,95904.91
2022-07-27T09:25:52.615Z,95887.47
2022-07-27T09:28:31.066Z,95905.53
2022-07-27T09:31:07.589Z,95890.94
2022-07-27T09:33:45.953Z,95907.63
2022-07-27T09:36:16.663Z,95892.75
2022-07-27T09:39:11.286Z,95913.94
2022-07-27T09:41:42.326Z,95922.53
2022-07-27T09:44:31.840Z,95912.63
2022-07-27T09:47:02.150Z,95882.13
2022-07-27T09:49:32.744Z,95931.19
2022-07-27T09:52:04.328Z,95931.09
2022-07-27T09:54:45.386Z,95934.47
2022-07-27T09:57:14.836Z,95930.94
2022-07-27T09:59:43.925Z,95932.03
2022-07-27T10:02:14.389Z,95919.69
2022-07-27T10:04:43.642Z,95944.03
2022-07-27T10:07:13.944Z,95939.28
2022-07-27T10:09:47.091Z,95946.56
2022-07-27T10:12:16.303Z,95929.88
2022-07-27T10:14:47.630Z,95946.56
2022-07-27T10:17:18.169Z,95950.97
2022-07-27T10:19:50.682Z,95950.78
2022-07-27T10:22:51.496Z,95938.88
2022-07-27T10:25:22.793Z,95946.69
2022-07-27T10:28:09.686Z,95947.84
2022-07-27T10:30:38.735Z,95934.81
2022-07-27T10:33:16.856Z,95943.13
2022-07-27T10:35:45.365Z,95952.22
2022-07-27T10:38:18.545Z,95947.84
2022-07-27T10:40:49.331Z,95949.16
2022-07-27T10:43:23.073Z,95945.59
2022-07-27T10:46:01.413Z,95935.91
2022-07-27T10:48:38.986Z,95946.16
2022-07-27T10:51:12.476Z,95942.38
2022-07-27T10:54:11.104Z,95939.09
2022-07-27T10:56:47.504Z,95944.00
2022-07-27T10:59:16.797Z,95922.72
2022-07-27T11:02:01.454Z,95937.25
2022-07-27T11:04:30.554Z,95926.59
2022-07-27T11:10:10.412Z,95927.59
2022-07-27T11:12:43.754Z,95923.34
2022-07-27T11:15:12.186Z,95904.78
2022-07-27T11:17:58.426Z,95921.84
2022-07-27T11:20:31.776Z,95917.81
2022-07-27T11:25:59.128Z,95921.84
2022-07-27T11:28:32.735Z,95900.88
2022-07-27T11:31:03.811Z,95916.47
2022-07-27T11:33:33.041Z,95914.19
2022-07-27T11:36:02.787Z,95910.59
2022-07-27T11:38:46.802Z,95919.13
2022-07-27T11:41:47.880Z,95925.47
2022-07-27T11:44:17.570Z,95923.72
2022-07-27T11:46:47.865Z,95926.22
2022-07-27T11:49:20.688Z,95927.09
2022-07-27T11:51:51.652Z,95919.88
2022-07-27T11:54:23.939Z,95916.50
2022-07-27T11:56:55.367Z,95920.22
2022-07-27T11:59:27.458Z,95928.66
2022-07-27T12:01:59.125Z,95890.47
2022-07-27T12:04:28.972Z,95916.59
2022-07-27T12:07:07.784Z,95922.09
2022-07-27T12:09:40.350Z,95924.53
2022-07-27T12:12:15.820Z,95930.78
2022-07-27T12:14:48.990Z,95932.59
2022-07-27T12:17:29.240Z,95928.56
2022-07-27T12:20:08.438Z,95905.63
2022-07-27T12:22:45.227Z,95940.63
2022-07-27T12:25:29.762Z,95951.50
2022-07-27T12:27:59.863Z,95949.91
2022-07-27T12:30:32.770Z,95931.97
2022-07-27T12:33:08.138Z,95948.88
2022-07-27T12:35:46.765Z,95962.38
2022-07-27T12:38:17.609Z,95964.78
2022-07-27T12:40:49.660Z,95965.34
2022-07-27T12:43:19.460Z,95967.56
2022-07-27T12:45:50.867Z,95961.91
2022-07-27T12:48:22.013Z,95961.09
2022-07-27T12:50:59.796Z,95988.50
2022-07-27T12:53:28.580Z,96003.50
2022-07-27T12:56:01.295Z,95996.34
2022-07-27T12:58:30.382Z,95983.19
2022-07-27T13:01:00.846Z,95979.22
2022-07-27T13:03:33.549Z,95988.63
2022-07-27T13:06:10.808Z,95999.72
2022-07-27T13:08:44.063Z,96004.72
2022-07-27T13:11:13.785Z,95997.84
2022-07-27T13:13:43.105Z,96001.59
2022-07-27T13:16:16.705Z,96006.81
2022-07-27T13:18:46.035Z,96018.63
2022-07-27T13:21:16.237Z,96017.88
2022-07-27T13:23:47.350Z,96025.50
2022-07-27T13:26:15.707Z,96019.78
2022-07-27T13:28:43.912Z,96018.97
2022-07-27T13:31:12.932Z,96010.84
2022-07-27T13:33:44.129Z,96009.13
2022-07-27T13:36:14.756Z,96021.13
2022-07-27T13:38:44.045Z,96022.06
2022-07-27T13:41:13.889Z,95987.53
2022-07-27T13:43:42.074Z,96026.88
2022-07-27T13:46:11.492Z,96038.00
2022-07-27T13:48:40.843Z,96039.06
2022-07-27T13:51:14.829Z,96037.38
2022-07-27T13:53:46.558Z,96044.06
2022-07-27T13:56:25.143Z,96045.94
2022-07-27T13:58:55.588Z,96044.56
2022-07-27T14:01:28.877Z,96054.56
2022-07-27T14:03:59.846Z,96064.25
2022-07-27T14:06:30.168Z,96054.75
2022-07-27T14:09:01.052Z,96049.03
2022-07-27T14:11:30.675Z,96045.59
2022-07-27T14:14:17.444Z,96045.81
2022-07-27T14:17:11.867Z,96040.41
2022-07-27T14:19:58.936Z,96020.41
2022-07-27T14:22:47.393Z,96020.69
2022-07-27T14:25:34.268Z,96034.81
2022-07-27T14:28:21.609Z,96006.50
2022-07-27T14:31:10.181Z,96021.38
2022-07-27T14:33:56.972Z,96005.91
2022-07-27T14:36:44.039Z,96009.69
2022-07-27T14:39:32.425Z,96004.59
2022-07-27T14:42:22.323Z,96022.72
2022-07-27T14:45:10.401Z,96018.69
2022-07-27T14:47:57.408Z,96026.03
2022-07-27T14:50:44.146Z,96014.47
2022-07-27T14:53:30.896Z,96008.84
2022-07-27T14:56:19.415Z,96006.97
2022-07-27T14:59:06.737Z,95975.06
2022-07-27T15:01:54.130Z,95999.53
2022-07-27T15:04:41.001Z,96003.09
2022-07-27T15:07:28.143Z,96019.31
2022-07-27T15:09:57.243Z,96008.28
2022-07-27T15:12:33.762Z,96011.53
2022-07-27T15:15:08.221Z,96001.00
2022-07-27T15:17:37.629Z,96001.28
2022-07-27T15:20:13.397Z,95998.91
2022-07-27T15:22:41.780Z,95999.34
2022-07-27T15:25:12.481Z,96001.22
2022-07-27T15:27:42.560Z,95996.16
2022-07-27T15:30:11.667Z,95991.22
2022-07-27T15:32:39.889Z,95988.25
2022-07-27T15:35:09.019Z,95988.31
2022-07-27T15:37:39.261Z,95980.75
2022-07-27T15:40:26.787Z,95937.22
2022-07-27T15:43:03.614Z,95975.81
2022-07-27T15:45:32.001Z,95971.34
2022-07-27T15:48:00.366Z,95975.31
2022-07-27T15:50:29.057Z,95980.59
2022-07-27T15:53:00.942Z,95977.09
2022-07-27T15:55:29.518Z,95972.69
2022-07-27T15:57:59.152Z,95946.50
2022-07-27T16:00:27.680Z,95956.97
2022-07-27T16:03:14.767Z,95982.66
2022-07-27T16:06:08.112Z,95983.63
2022-07-27T16:09:00.761Z,95988.38
2022-07-27T16:11:45.377Z,95977.91
2022-07-27T16:14:30.245Z,95973.94
2022-07-27T16:17:31.913Z,95958.75
2022-07-27T16:20:28.103Z,95964.41
2022-07-27T16:23:45.322Z,95964.09
2022-07-27T16:26:50.995Z,95963.09
2022-07-27T16:29:55.082Z,95959.13
2022-07-27T16:32:42.875Z,95928.91
2022-07-27T16:36:11.044Z,95950.44
2022-07-27T16:39:03.267Z,95957.72
2022-07-27T16:42:24.715Z,95956.19
2022-07-27T16:45:37.205Z,95956.00
2022-07-27T16:49:13.842Z,95963.13
2022-07-27T16:52:28.874Z,95961.28
2022-07-27T16:55:27.522Z,95963.91
2022-07-27T16:59:03.818Z,95965.41
2022-07-27T17:02:21.940Z,95956.47
2022-07-27T17:05:38.422Z,95962.00
2022-07-27T17:08:11.018Z,95967.44
2022-07-27T17:10:39.848Z,95956.22
2022-07-27T17:13:13.410Z,95945.09
2022-07-27T17:15:42.234Z,95944.72
2022-07-27T17:18:12.413Z,95954.09
2022-07-27T17:20:41.628Z,95947.34
2022-07-27T17:23:12.236Z,95955.53
2022-07-27T17:25:40.628Z,95961.56
2022-07-27T17:28:09.111Z,95967.03
2022-07-27T17:30:38.467Z,95979.13
2022-07-27T17:33:07.829Z,95986.41
2022-07-27T17:35:40.747Z,95991.31
2022-07-27T17:38:09.290Z,95957.94
2022-07-27T17:40:37.541Z,95984.06
2022-07-27T17:43:05.859Z,95999.03
2022-07-27T17:45:34.276Z,95992.69
2022-07-27T17:48:02.514Z,95992.69
2022-07-27T17:50:30.829Z,95993.66
2022-07-27T17:53:01.713Z,96010.16
2022-07-27T17:55:30.149Z,96007.38
2022-07-27T17:57:58.494Z,96002.03
2022-07-27T18:00:27.236Z,95998.16
2022-07-27T18:02:55.452Z,96006.59
2022-07-27T18:05:24.096Z,95986.66
2022-07-27T18:07:54.002Z,96009.63
2022-07-27T18:10:27.154Z,96003.50
2022-07-27T18:12:55.482Z,95991.28
2022-07-27T18:15:41.270Z,95998.66
2022-07-27T18:18:09.619Z,96000.84
2022-07-27T18:20:38.387Z,96002.81
2022-07-27T18:23:08.164Z,96001.75
2022-07-27T18:25:38.070Z,96004.53
2022-07-27T18:28:06.685Z,96007.66
2022-07-27T18:30:35.313Z,96009.75
2022-07-27T18:33:03.493Z,96019.88
2022-07-27T18:35:31.659Z,96021.06
2022-07-27T18:38:04.608Z,96016.47
2022-07-27T18:40:33.028Z,96025.84
2022-07-27T18:43:03.214Z,96021.06
2022-07-27T18:45:34.659Z,96031.59
2022-07-27T18:48:03.790Z,96038.56
2022-07-27T18:52:19.255Z,96046.06
2022-07-27T18:54:47.434Z,96044.63
2022-07-27T18:57:15.772Z,96040.91
2022-07-27T18:59:44.247Z,96051.44
2022-07-27T19:02:12.694Z,96063.94
2022-07-27T19:04:41.175Z,96066.38
2022-07-27T19:07:10.022Z,96073.19
2022-07-27T19:09:39.813Z,96079.34
2022-07-27T19:12:09.826Z,96084.53
2022-07-27T19:14:39.030Z,96088.09
2022-07-27T19:17:08.076Z,96098.81
2022-07-27T19:19:42.920Z,96010.91
2022-07-27T19:22:13.174Z,96101.41
2022-07-27T19:24:43.345Z,96108.53
2022-07-27T19:27:15.365Z,96113.41
2022-07-27T19:29:43.943Z,96102.91
2022-07-27T19:32:12.774Z,96106.94
2022-07-27T19:34:40.957Z,96116.84
2022-07-27T19:37:09.432Z,96122.19
2022-07-27T19:39:57.101Z,96130.78
2022-07-27T19:42:27.422Z,96131.59
2022-07-27T19:44:55.632Z,96126.41
2022-07-27T19:47:25.378Z,96129.97
2022-07-27T19:49:53.704Z,96141.00
2022-07-27T19:52:22.120Z,96149.09
2022-07-27T19:54:50.311Z,96145.34
2022-07-27T19:57:18.439Z,96138.41
2022-07-27T19:59:55.772Z,96149.88
2022-07-27T20:02:25.544Z,96151.19
2022-07-27T20:04:53.855Z,96160.91
2022-07-27T20:07:22.062Z,96166.25
2022-07-27T20:09:50.258Z,96169.63
2022-07-27T20:12:18.767Z,96165.59
2022-07-27T20:14:48.321Z,96166.69
2022-07-27T20:17:17.539Z,96155.31
2022-07-27T20:19:46.785Z,96168.94
2022-07-27T20:22:16.592Z,96172.97
2022-07-27T20:24:44.961Z,96171.03
2022-07-27T20:27:13.194Z,96171.53
2022-07-27T20:29:41.376Z,96179.34
2022-07-27T20:32:11.607Z,96183.06
2022-07-27T20:34:39.846Z,96187.63
2022-07-27T20:37:08.186Z,96189.91
2022-07-27T20:39:36.283Z,96193.81
2022-07-27T20:42:04.824Z,96178.88
2022-07-27T20:44:33.068Z,96177.28
2022-07-27T20:47:01.178Z,96190.56
2022-07-27T20:49:30.819Z,96197.22
2022-07-27T20:51:59.040Z,96191.56
2022-07-27T20:54:29.364Z,96182.13
2022-07-27T20:56:57.917Z,96194.31
2022-07-27T20:59:26.091Z,96189.28
2022-07-27T21:01:54.641Z,96152.16
2022-07-27T21:04:24.053Z,96180.53
2022-07-27T21:06:54.274Z,96190.25
2022-07-27T21:09:22.593Z,96186.84
2022-07-27T21:11:51.148Z,96178.59
2022-07-27T21:14:19.361Z,96136.44
2022-07-27T21:16:47.499Z,96178.25
2022-07-27T21:19:16.293Z,96183.59
2022-07-27T21:21:44.970Z,96176.13
2022-07-27T21:24:17.420Z,96194.16
2022-07-27T21:26:48.541Z,96190.56
2022-07-27T21:29:17.154Z,96148.13
2022-07-27T21:31:48.171Z,96144.69
2022-07-27T21:34:18.583Z,96137.75
2022-07-27T21:36:47.412Z,96168.84
2022-07-27T21:39:18.048Z,96193.16
2022-07-27T21:41:46.536Z,96198.84
2022-07-27T21:44:15.174Z,96188.75
2022-07-27T21:46:43.647Z,96194.09
2022-07-27T21:49:13.286Z,96193.22
2022-07-27T21:51:41.491Z,96195.94
2022-07-27T21:54:09.946Z,96195.41
2022-07-27T21:56:41.918Z,96192.63
2022-07-27T21:59:11.428Z,96196.94
2022-07-27T22:01:39.712Z,96181.50
2022-07-27T22:04:07.938Z,96203.22
2022-07-27T22:06:36.189Z,96199.63
2022-07-27T22:09:04.609Z,96207.09
2022-07-27T22:11:32.807Z,96200.47
2022-07-27T22:14:02.369Z,96162.50
2022-07-27T22:16:30.681Z,96201.78
2022-07-27T22:18:58.940Z,96215.38
2022-07-27T22:21:28.367Z,96219.09
2022-07-27T22:23:56.714Z,96210.97
2022-07-27T22:26:24.897Z,96218.66
2022-07-27T22:28:53.138Z,96223.50
2022-07-27T22:31:23.531Z,96223.47
2022-07-27T22:33:51.878Z,96224.66
2022-07-27T22:36:20.085Z,96232.44
2022-07-27T22:38:48.462Z,96215.63
2022-07-27T22:41:16.737Z,96224.97
2022-07-27T22:43:44.870Z,96231.25
2022-07-27T22:46:13.092Z,96224.63
2022-07-27T22:48:42.711Z,96231.22
2022-07-27T22:51:11.024Z,96235.31
2022-07-27T22:53:39.446Z,96223.94
2022-07-27T22:56:07.723Z,96219.91
2022-07-27T22:58:35.924Z,96215.31
2022-07-27T23:01:04.122Z,96218.41
2022-07-27T23:03:32.323Z,96228.19
2022-07-27T23:06:01.859Z,96225.44
2022-07-27T23:08:29.950Z,96227.25
2022-07-27T23:10:58.129Z,96229.84
2022-07-27T23:13:26.232Z,96218.44
2022-07-27T23:16:02.219Z,96223.28
2022-07-27T23:18:30.562Z,96209.47
2022-07-27T23:20:58.686Z,96180.25
2022-07-27T23:23:28.741Z,96223.88
2022-07-27T23:26:03.906Z,96229.31
2022-07-27T23:28:32.586Z,96229.63
2022-07-27T23:31:01.841Z,96226.69
2022-07-27T23:33:30.419Z,96238.31
2022-07-27T23:35:58.656Z,96230.31
2022-07-27T23:38:28.678Z,96229.88
2022-07-27T23:40:56.859Z,96186.31
2022-07-27T23:43:27.671Z,96174.94
2022-07-27T23:45:55.808Z,96225.81
2022-07-27T23:48:25.184Z,96227.09
2022-07-27T23:50:54.089Z,96226.56
2022-07-27T23:53:22.669Z,96226.72
2022-07-27T23:55:52.485Z,96223.78
2022-07-27T23:58:20.601Z,96228.13
